createdAt,value
2018-12-03T00:00:38.591Z,0
2018-12-03T00:01:47.273Z,0
2018-12-03T00:02:55.949Z,0
2018-12-03T00:04:04.627Z,0
2018-12-03T00:05:13.304Z,0
2018-12-03T00:06:21.988Z,0
2018-12-03T00:07:30.670Z,0
2018-12-03T00:08:39.341Z,0
2018-12-03T00:09:48.439Z,0
2018-12-03T00:10:57.124Z,0
2018-12-03T00:12:06.056Z,0
2018-12-03T00:13:14.729Z,0
2018-12-03T00:14:23.400Z,0
2018-12-03T00:15:32.083Z,0
2018-12-03T00:16:40.764Z,0
2018-12-03T00:17:49.443Z,0
2018-12-03T00:18:58.114Z,0
2018-12-03T00:20:06.803Z,0
2018-12-03T00:21:15.728Z,0
2018-12-03T00:22:24.405Z,0
2018-12-03T00:23:33.075Z,0
2018-12-03T00:24:42.001Z,0
2018-12-03T00:25:50.672Z,0
2018-12-03T00:26:59.353Z,0
2018-12-03T00:28:08.317Z,0
2018-12-03T00:29:16.990Z,0
2018-12-03T00:30:25.737Z,0
2018-12-03T00:31:34.411Z,0
2018-12-03T00:32:43.134Z,0
2018-12-03T00:33:51.801Z,0
2018-12-03T00:35:00.477Z,0
2018-12-03T00:36:09.149Z,0
2018-12-03T00:37:18.086Z,0
2018-12-03T00:38:26.756Z,0
2018-12-03T00:39:35.434Z,0
2018-12-03T00:40:44.109Z,0
2018-12-03T00:41:52.794Z,0
2018-12-03T00:43:01.465Z,0
2018-12-03T00:44:10.156Z,0
2018-12-03T00:45:18.827Z,0
2018-12-03T00:46:27.567Z,0
2018-12-03T00:47:36.300Z,0
2018-12-03T00:48:44.972Z,0
2018-12-03T00:49:53.651Z,0
2018-12-03T00:51:02.314Z,0
2018-12-03T00:52:11.004Z,0
2018-12-03T00:53:19.670Z,0
2018-12-03T00:54:28.347Z,0
2018-12-03T00:55:37.013Z,0
2018-12-03T00:56:45.703Z,0
2018-12-03T00:57:54.373Z,0
2018-12-03T00:59:03.059Z,0
2018-12-03T01:00:11.727Z,0
2018-12-03T01:01:20.417Z,0
2018-12-03T01:02:29.351Z,0
2018-12-03T01:03:38.037Z,0
2018-12-03T01:04:46.720Z,0
2018-12-03T01:05:55.394Z,0
2018-12-03T01:07:04.070Z,0
2018-12-03T01:08:12.739Z,0
2018-12-03T01:09:21.422Z,0
2018-12-03T01:10:30.091Z,0
2018-12-03T01:11:38.794Z,0
2018-12-03T01:12:47.464Z,0
2018-12-03T01:13:56.152Z,0
2018-12-03T01:15:04.823Z,0
2018-12-03T01:16:13.518Z,0
2018-12-03T01:17:22.445Z,0
2018-12-03T01:18:31.137Z,0
2018-12-03T01:19:39.815Z,0
2018-12-03T01:20:48.486Z,0
2018-12-03T01:21:57.164Z,0
2018-12-03T01:23:06.109Z,0
2018-12-03T01:24:14.795Z,0
2018-12-03T01:25:23.465Z,0
2018-12-03T01:26:32.144Z,0
2018-12-03T01:27:40.860Z,0
2018-12-03T01:28:49.546Z,0
2018-12-03T01:29:58.226Z,0
2018-12-03T01:31:06.905Z,0
2018-12-03T01:32:15.580Z,0
2018-12-03T01:33:24.271Z,0
2018-12-03T01:34:32.983Z,0
2018-12-03T01:35:41.660Z,0
2018-12-03T01:36:50.329Z,0
2018-12-03T01:37:59.310Z,0
2018-12-03T01:39:07.989Z,0
2018-12-03T01:40:16.667Z,0
2018-12-03T01:41:25.346Z,0
2018-12-03T01:42:34.013Z,0
2018-12-03T01:43:42.693Z,0
2018-12-03T01:44:51.380Z,0
2018-12-03T01:46:00.058Z,0
2018-12-03T01:47:08.738Z,0
2018-12-03T01:48:17.463Z,0
2018-12-03T01:49:26.141Z,0
2018-12-03T01:50:34.822Z,0
2018-12-03T01:51:43.497Z,0
2018-12-03T01:52:52.179Z,0
2018-12-03T01:54:01.064Z,0
2018-12-03T01:55:09.763Z,0
2018-12-03T01:56:18.443Z,0
2018-12-03T01:57:27.116Z,0
2018-12-03T01:58:35.790Z,0
2018-12-03T01:59:44.467Z,0
2018-12-03T02:00:53.148Z,0
2018-12-03T02:02:02.078Z,0
2018-12-03T02:03:10.753Z,0
2018-12-03T02:04:19.443Z,0
2018-12-03T02:05:28.121Z,0
2018-12-03T02:06:36.811Z,0
2018-12-03T02:07:45.488Z,0
2018-12-03T02:08:54.418Z,0
2018-12-03T02:10:03.345Z,0
2018-12-03T02:11:12.020Z,0
2018-12-03T02:12:20.696Z,0
2018-12-03T02:13:29.361Z,0
2018-12-03T02:14:38.088Z,0
2018-12-03T02:15:46.759Z,0
2018-12-03T02:16:55.438Z,0
2018-12-03T02:18:04.117Z,0
2018-12-03T02:19:12.791Z,0
2018-12-03T02:20:21.475Z,0
2018-12-03T02:21:30.163Z,0
2018-12-03T02:22:38.851Z,0
2018-12-03T02:23:47.528Z,0
2018-12-03T02:24:56.203Z,0
2018-12-03T02:26:04.881Z,0
2018-12-03T02:27:13.564Z,0
2018-12-03T02:28:22.237Z,0
2018-12-03T02:29:30.913Z,0
2018-12-03T02:30:39.586Z,0
2018-12-03T02:31:48.545Z,0
2018-12-03T02:32:57.248Z,0
2018-12-03T02:34:06.421Z,0
2018-12-03T02:35:15.101Z,0
2018-12-03T02:36:23.776Z,0
2018-12-03T02:37:32.461Z,0
2018-12-03T02:38:41.392Z,0
2018-12-03T02:39:50.338Z,0
2018-12-03T02:40:59.269Z,0
2018-12-03T02:42:08.209Z,0
2018-12-03T02:43:16.882Z,0
2018-12-03T02:44:25.565Z,0
2018-12-03T02:45:34.500Z,0
2018-12-03T02:46:43.203Z,0
2018-12-03T02:47:52.394Z,0
2018-12-03T02:49:01.085Z,0
2018-12-03T02:50:09.751Z,0
2018-12-03T02:51:18.511Z,0
2018-12-03T02:52:27.474Z,0
2018-12-03T02:53:36.466Z,0
2018-12-03T02:54:45.146Z,0
2018-12-03T02:55:53.821Z,0
2018-12-03T02:57:02.508Z,0
2018-12-03T02:58:11.450Z,0
2018-12-03T02:59:20.148Z,0
2018-12-03T03:00:29.324Z,0
2018-12-03T03:01:38.287Z,0
2018-12-03T03:02:46.966Z,0
2018-12-03T03:03:55.652Z,0
2018-12-03T03:05:04.579Z,0
2018-12-03T03:06:13.276Z,0
2018-12-03T03:07:21.959Z,0
2018-12-03T03:08:30.662Z,0
2018-12-03T03:09:39.613Z,0
2018-12-03T03:10:48.285Z,0
2018-12-03T03:11:56.964Z,0
2018-12-03T03:13:05.639Z,0
2018-12-03T03:14:14.584Z,0
2018-12-03T03:15:23.279Z,0
2018-12-03T03:16:32.214Z,0
2018-12-03T03:17:40.896Z,0
2018-12-03T03:18:49.647Z,0
2018-12-03T03:19:58.594Z,0
2018-12-03T03:21:07.270Z,0
2018-12-03T03:22:15.952Z,0
2018-12-03T03:23:24.646Z,0
2018-12-03T03:24:33.331Z,0
2018-12-03T03:25:42.010Z,0
2018-12-03T03:26:50.682Z,0
2018-12-03T03:27:59.361Z,0
2018-12-03T03:29:08.048Z,0
2018-12-03T03:30:17.065Z,0
2018-12-03T03:31:26.035Z,0
2018-12-03T03:32:37.433Z,0
2018-12-03T03:33:46.894Z,0
2018-12-03T03:34:55.816Z,0
2018-12-03T03:36:04.503Z,0
2018-12-03T03:37:13.180Z,0
2018-12-03T03:38:21.875Z,0
2018-12-03T03:39:30.545Z,0
2018-12-03T03:40:39.499Z,0
2018-12-03T03:41:48.441Z,0
2018-12-03T03:42:57.117Z,0
2018-12-03T03:44:06.998Z,0
2018-12-03T03:45:15.666Z,0
2018-12-03T03:46:24.339Z,0
2018-12-03T03:47:33.019Z,0
2018-12-03T03:48:41.701Z,0
2018-12-03T03:49:50.650Z,0
2018-12-03T03:50:59.571Z,0
2018-12-03T03:52:08.252Z,0
2018-12-03T03:53:16.929Z,0
2018-12-03T03:54:31.887Z,0
2018-12-03T03:55:40.808Z,0
2018-12-03T03:56:49.496Z,0
2018-12-03T03:57:58.179Z,0
2018-12-03T03:59:06.868Z,0
2018-12-03T04:00:15.538Z,0
2018-12-03T04:01:24.216Z,0
2018-12-03T04:02:32.893Z,0
2018-12-03T04:03:41.594Z,0
2018-12-03T04:04:50.276Z,0
2018-12-03T04:05:59.204Z,0
2018-12-03T04:07:07.880Z,0
2018-12-03T04:08:16.564Z,0
2018-12-03T04:09:25.252Z,0
2018-12-03T04:10:33.936Z,0
2018-12-03T04:11:42.626Z,0
2018-12-03T04:12:51.311Z,0
2018-12-03T04:14:00.002Z,0
2018-12-03T04:15:08.688Z,0
2018-12-03T04:16:17.374Z,0
2018-12-03T04:17:26.070Z,0
2018-12-03T04:18:34.758Z,0
2018-12-03T04:19:43.427Z,0
2018-12-03T04:20:52.109Z,0
2018-12-03T04:22:00.779Z,0
2018-12-03T04:23:09.459Z,0
2018-12-03T04:24:18.192Z,0
2018-12-03T04:25:26.878Z,0
2018-12-03T04:26:35.570Z,0
2018-12-03T04:27:44.265Z,0
2018-12-03T04:28:52.951Z,0
2018-12-03T04:30:01.627Z,0
2018-12-03T04:31:10.579Z,0
2018-12-03T04:32:19.247Z,0
2018-12-03T04:33:27.928Z,0
2018-12-03T04:34:37.115Z,0
2018-12-03T04:35:45.801Z,0
2018-12-03T04:36:54.504Z,0
2018-12-03T04:38:03.179Z,0
2018-12-03T04:39:12.131Z,0
2018-12-03T04:40:20.810Z,0
2018-12-03T04:41:29.479Z,0
2018-12-03T04:42:38.153Z,0
2018-12-03T04:43:46.844Z,0
2018-12-03T04:44:55.523Z,0
2018-12-03T04:46:04.202Z,0
2018-12-03T04:47:12.885Z,0
2018-12-03T04:48:21.576Z,0
2018-12-03T04:49:30.256Z,0
2018-12-03T04:50:38.988Z,0
2018-12-03T04:51:47.685Z,0
2018-12-03T04:52:56.368Z,0
2018-12-03T04:54:05.320Z,0
2018-12-03T04:55:14.023Z,0
2018-12-03T04:56:22.705Z,0
2018-12-03T04:57:31.632Z,0
2018-12-03T04:58:40.301Z,0
2018-12-03T04:59:48.983Z,0
2018-12-03T05:00:57.670Z,0
2018-12-03T05:02:06.356Z,0
2018-12-03T05:03:15.300Z,0
2018-12-03T05:04:24.230Z,0
2018-12-03T05:05:32.908Z,0
2018-12-03T05:06:41.586Z,0
2018-12-03T05:07:50.266Z,0
2018-12-03T05:08:58.959Z,0
2018-12-03T05:10:07.641Z,0
2018-12-03T05:11:16.596Z,0
2018-12-03T05:12:25.532Z,0
2018-12-03T05:13:34.211Z,0
2018-12-03T05:14:42.889Z,0
2018-12-03T05:15:51.564Z,0
2018-12-03T05:17:00.505Z,0
2018-12-03T05:18:09.441Z,0
2018-12-03T05:19:18.144Z,0
2018-12-03T05:20:27.343Z,0
2018-12-03T05:21:36.269Z,0
2018-12-03T05:22:46.627Z,0
2018-12-03T05:23:55.308Z,0
2018-12-03T05:25:04.261Z,0
2018-12-03T05:26:12.938Z,0
2018-12-03T05:27:21.618Z,0
2018-12-03T05:28:30.301Z,0
2018-12-03T05:29:38.975Z,0
2018-12-03T05:30:47.651Z,0
2018-12-03T05:31:56.326Z,0
2018-12-03T05:33:05.012Z,0
2018-12-03T05:34:13.701Z,0
2018-12-03T05:35:22.628Z,0
2018-12-03T05:36:31.315Z,0
2018-12-03T05:37:40.253Z,0
2018-12-03T05:38:48.922Z,0
2018-12-03T05:39:57.595Z,0
2018-12-03T05:41:06.277Z,0
2018-12-03T05:42:15.469Z,0
2018-12-03T05:43:24.407Z,0
2018-12-03T05:44:33.071Z,0
2018-12-03T05:45:41.752Z,0
2018-12-03T05:46:50.423Z,0
2018-12-03T05:47:59.102Z,0
2018-12-03T05:49:07.771Z,0
2018-12-03T05:50:16.719Z,0
2018-12-03T05:51:25.391Z,0
2018-12-03T05:52:34.069Z,0
2018-12-03T05:53:42.739Z,0
2018-12-03T05:54:51.672Z,0
2018-12-03T05:56:00.621Z,0
2018-12-03T05:57:09.307Z,0
2018-12-03T05:58:17.989Z,0
2018-12-03T05:59:26.656Z,0
2018-12-03T06:00:35.341Z,0
2018-12-03T06:01:44.018Z,0
2018-12-03T06:02:52.703Z,0
2018-12-03T06:04:01.373Z,0
2018-12-03T06:05:10.051Z,0
2018-12-03T06:06:18.725Z,0
2018-12-03T06:07:27.413Z,0
2018-12-03T06:08:36.087Z,0
2018-12-03T06:09:44.767Z,0
2018-12-03T06:10:53.443Z,0
2018-12-03T06:12:02.131Z,0
2018-12-03T06:13:10.802Z,0
2018-12-03T06:14:19.481Z,0
2018-12-03T06:15:28.157Z,0
2018-12-03T06:16:36.828Z,0
2018-12-03T06:17:45.510Z,0
2018-12-03T06:18:54.183Z,0
2018-12-03T06:20:02.864Z,0
2018-12-03T06:21:11.536Z,0
2018-12-03T06:22:20.230Z,0
2018-12-03T06:23:28.905Z,0
2018-12-03T06:24:37.597Z,0
2018-12-03T06:25:46.521Z,0
2018-12-03T06:26:55.208Z,0
2018-12-03T06:28:04.138Z,0
2018-12-03T06:29:12.819Z,0
2018-12-03T06:30:21.483Z,0
2018-12-03T06:31:30.167Z,0
2018-12-03T06:32:39.100Z,0
2018-12-03T06:33:47.776Z,0
2018-12-03T06:34:56.454Z,0
2018-12-03T06:36:05.120Z,0
2018-12-03T06:37:13.803Z,0
2018-12-03T06:38:24.127Z,0
2018-12-03T06:39:32.805Z,0
2018-12-03T06:40:41.493Z,0
2018-12-03T06:41:50.179Z,0
2018-12-03T06:42:58.851Z,0
2018-12-03T06:44:07.544Z,0
2018-12-03T06:45:16.229Z,0
2018-12-03T06:46:24.909Z,0
2018-12-03T06:47:33.842Z,0
2018-12-03T06:48:42.517Z,0
2018-12-03T06:49:51.191Z,0
2018-12-03T06:51:00.124Z,0
2018-12-03T06:52:08.804Z,0
2018-12-03T06:53:17.480Z,0
2018-12-03T06:54:26.162Z,0
2018-12-03T06:55:34.839Z,0
2018-12-03T06:56:43.515Z,0
2018-12-03T06:57:52.703Z,0
2018-12-03T06:59:01.378Z,0
2018-12-03T07:00:10.310Z,0
2018-12-03T07:01:18.989Z,0
2018-12-03T07:02:27.695Z,0
2018-12-03T07:03:36.372Z,0
2018-12-03T07:04:45.041Z,0
2018-12-03T07:05:53.718Z,0
2018-12-03T07:07:02.390Z,0
2018-12-03T07:08:11.076Z,0
2018-12-03T07:09:19.757Z,0
2018-12-03T07:10:28.701Z,0
2018-12-03T07:11:37.373Z,0
2018-12-03T07:12:46.302Z,0
2018-12-03T07:13:54.974Z,0
2018-12-03T07:15:03.655Z,0
2018-12-03T07:16:12.340Z,0
2018-12-03T07:17:21.474Z,0
2018-12-03T07:18:30.407Z,5
2018-12-03T07:19:39.125Z,5
2018-12-03T07:20:47.817Z,5
2018-12-03T07:21:56.484Z,5
2018-12-03T07:23:05.170Z,5
2018-12-03T07:24:13.840Z,5
2018-12-03T07:25:22.777Z,5
2018-12-03T07:26:31.456Z,5
2018-12-03T07:27:40.131Z,5
2018-12-03T07:28:48.802Z,5
2018-12-03T07:30:01.589Z,10
2018-12-03T07:31:10.525Z,10
2018-12-03T07:32:19.204Z,10
2018-12-03T07:33:28.131Z,10
2018-12-03T07:34:36.797Z,5
2018-12-03T07:35:45.473Z,5
2018-12-03T07:36:54.140Z,5
2018-12-03T07:38:03.067Z,0
2018-12-03T07:39:11.749Z,0
2018-12-03T07:40:20.429Z,0
2018-12-03T07:41:29.107Z,5
2018-12-03T07:42:37.779Z,10
2018-12-03T07:43:46.454Z,10
2018-12-03T07:44:55.129Z,15
2018-12-03T07:46:03.810Z,20
2018-12-03T07:47:12.482Z,15
2018-12-03T07:48:21.157Z,15
2018-12-03T07:49:29.837Z,20
2018-12-03T07:50:38.512Z,20
2018-12-03T07:51:47.184Z,25
2018-12-03T07:52:55.859Z,25
2018-12-03T07:54:04.541Z,25
2018-12-03T07:55:13.243Z,30
2018-12-03T07:56:21.914Z,30
2018-12-03T07:57:30.844Z,30
2018-12-03T07:58:39.788Z,30
2018-12-03T07:59:48.733Z,35
2018-12-03T08:00:57.677Z,35
2018-12-03T08:02:06.639Z,35
2018-12-03T08:03:15.314Z,35
2018-12-03T08:04:24.250Z,40
2018-12-03T08:05:32.930Z,40
2018-12-03T08:06:41.865Z,40
2018-12-03T08:07:50.529Z,40
2018-12-03T08:08:59.207Z,40
2018-12-03T08:10:07.879Z,40
2018-12-03T08:11:16.553Z,45
2018-12-03T08:12:25.228Z,45
2018-12-03T08:13:33.908Z,50
2018-12-03T08:14:42.584Z,45
2018-12-03T08:15:51.265Z,45
2018-12-03T08:17:00.190Z,45
2018-12-03T08:18:08.864Z,45
2018-12-03T08:19:17.533Z,45
2018-12-03T08:20:26.210Z,45
2018-12-03T08:21:34.885Z,50
2018-12-03T08:22:43.558Z,50
2018-12-03T08:23:52.231Z,55
2018-12-03T08:25:00.899Z,55
2018-12-03T08:26:09.594Z,65
2018-12-03T08:27:18.270Z,65
2018-12-03T08:28:26.948Z,65
2018-12-03T08:29:35.618Z,70
2018-12-03T08:30:44.551Z,70
2018-12-03T08:31:53.225Z,65
2018-12-03T08:33:01.902Z,70
2018-12-03T08:34:10.823Z,70
2018-12-03T08:35:19.772Z,65
2018-12-03T08:36:28.449Z,70
2018-12-03T08:37:37.130Z,70
2018-12-03T08:38:45.829Z,75
2018-12-03T08:39:54.508Z,75
2018-12-03T08:41:03.187Z,80
2018-12-03T08:42:11.867Z,85
2018-12-03T08:43:20.542Z,90
2018-12-03T08:44:29.205Z,85
2018-12-03T08:45:37.880Z,85
2018-12-03T08:46:46.550Z,80
2018-12-03T08:47:55.232Z,80
2018-12-03T08:49:03.895Z,80
2018-12-03T08:50:12.581Z,80
2018-12-03T08:51:21.247Z,80
2018-12-03T08:52:29.929Z,80
2018-12-03T08:53:38.593Z,85
2018-12-03T08:54:47.526Z,85
2018-12-03T08:55:56.209Z,100
2018-12-03T08:57:04.930Z,120
2018-12-03T08:58:13.605Z,130
2018-12-03T08:59:22.271Z,155
2018-12-03T09:00:30.970Z,150
2018-12-03T09:01:39.647Z,150
2018-12-03T09:02:48.597Z,130
2018-12-03T09:03:57.319Z,135
2018-12-03T09:05:06.002Z,140
2018-12-03T09:06:14.667Z,115
2018-12-03T09:07:23.608Z,100
2018-12-03T09:08:32.289Z,80
2018-12-03T09:09:40.972Z,65
2018-12-03T09:10:49.639Z,80
2018-12-03T09:11:58.328Z,100
2018-12-03T09:13:07.003Z,110
2018-12-03T09:14:15.685Z,110
2018-12-03T09:15:24.353Z,130
2018-12-03T09:16:33.029Z,120
2018-12-03T09:17:41.718Z,100
2018-12-03T09:18:50.405Z,100
2018-12-03T09:19:59.091Z,120
2018-12-03T09:21:07.787Z,105
2018-12-03T09:22:16.535Z,110
2018-12-03T09:23:25.210Z,115
2018-12-03T09:24:33.898Z,110
2018-12-03T09:25:42.620Z,105
2018-12-03T09:26:51.299Z,90
2018-12-03T09:27:59.969Z,70
2018-12-03T09:29:08.661Z,70
2018-12-03T09:30:17.327Z,65
2018-12-03T09:31:26.259Z,70
2018-12-03T09:32:34.934Z,70
2018-12-03T09:33:43.621Z,75
2018-12-03T09:34:52.293Z,70
2018-12-03T09:36:00.970Z,75
2018-12-03T09:37:09.655Z,80
2018-12-03T09:38:18.590Z,85
2018-12-03T09:39:27.269Z,90
2018-12-03T09:40:35.945Z,100
2018-12-03T09:41:44.626Z,105
2018-12-03T09:42:53.296Z,105
2018-12-03T09:44:02.056Z,110
2018-12-03T09:45:10.732Z,120
2018-12-03T09:46:19.421Z,130
2018-12-03T09:47:28.096Z,135
2018-12-03T09:48:36.779Z,135
2018-12-03T09:49:45.452Z,130
2018-12-03T09:50:54.134Z,125
2018-12-03T09:52:02.809Z,125
2018-12-03T09:53:11.489Z,125
2018-12-03T09:54:20.164Z,130
2018-12-03T09:55:28.852Z,130
2018-12-03T09:56:37.564Z,130
2018-12-03T09:57:46.486Z,130
2018-12-03T09:58:55.161Z,130
2018-12-03T10:00:03.919Z,125
2018-12-03T10:01:12.606Z,125
2018-12-03T10:02:21.275Z,125
2018-12-03T10:03:30.213Z,125
2018-12-03T10:04:39.150Z,125
2018-12-03T10:05:47.826Z,115
2018-12-03T10:06:56.500Z,120
2018-12-03T10:08:05.183Z,120
2018-12-03T10:09:13.864Z,140
2018-12-03T10:10:22.806Z,140
2018-12-03T10:11:31.478Z,145
2018-12-03T10:12:40.505Z,150
2018-12-03T10:13:49.178Z,155
2018-12-03T10:14:58.113Z,150
2018-12-03T10:16:06.788Z,145
2018-12-03T10:17:15.715Z,145
2018-12-03T10:18:24.389Z,145
2018-12-03T10:19:33.062Z,145
2018-12-03T10:20:46.594Z,140
2018-12-03T10:21:55.755Z,145
2018-12-03T10:23:04.709Z,150
2018-12-03T10:24:13.383Z,155
2018-12-03T10:25:22.371Z,155
2018-12-03T10:26:31.042Z,160
2018-12-03T10:27:39.722Z,165
2018-12-03T10:28:48.401Z,160
2018-12-03T10:29:57.080Z,160
2018-12-03T10:31:06.025Z,155
2018-12-03T10:32:14.963Z,135
2018-12-03T10:33:23.658Z,135
2018-12-03T10:34:32.335Z,145
2018-12-03T10:35:41.268Z,145
2018-12-03T10:36:49.937Z,145
2018-12-03T10:37:58.620Z,155
2018-12-03T10:39:07.283Z,160
2018-12-03T10:40:15.965Z,170
2018-12-03T10:41:24.634Z,165
2018-12-03T10:42:33.327Z,165
2018-12-03T10:43:41.998Z,160
2018-12-03T10:44:50.684Z,160
2018-12-03T10:45:59.369Z,170
2018-12-03T10:47:08.053Z,165
2018-12-03T10:48:16.726Z,160
2018-12-03T10:49:25.399Z,155
2018-12-03T10:50:34.075Z,145
2018-12-03T10:51:42.751Z,135
2018-12-03T10:52:51.733Z,135
2018-12-03T10:54:00.456Z,140
2018-12-03T10:55:09.392Z,140
2018-12-03T10:56:18.063Z,135
2018-12-03T10:57:26.749Z,135
2018-12-03T10:58:35.430Z,130
2018-12-03T10:59:44.327Z,125
2018-12-03T11:00:52.990Z,130
2018-12-03T11:02:01.680Z,125
2018-12-03T11:03:10.355Z,120
2018-12-03T11:04:19.297Z,115
2018-12-03T11:05:27.972Z,120
2018-12-03T11:06:36.651Z,125
2018-12-03T11:07:45.342Z,130
2018-12-03T11:08:54.530Z,125
2018-12-03T11:10:03.206Z,120
2018-12-03T11:11:12.129Z,120
2018-12-03T11:12:20.820Z,125
2018-12-03T11:13:29.490Z,110
2018-12-03T11:14:38.181Z,105
2018-12-03T11:15:47.369Z,100
2018-12-03T11:16:56.067Z,120
2018-12-03T11:18:04.741Z,130
2018-12-03T11:19:13.725Z,130
2018-12-03T11:20:22.453Z,115
2018-12-03T11:21:31.136Z,125
2018-12-03T11:22:39.875Z,115
2018-12-03T11:23:49.049Z,105
2018-12-03T11:24:58.164Z,105
2018-12-03T11:26:07.267Z,105
2018-12-03T11:27:15.939Z,110
2018-12-03T11:28:24.638Z,110
2018-12-03T11:29:33.329Z,105
2018-12-03T11:30:42.417Z,120
2018-12-03T11:31:51.184Z,135
2018-12-03T11:33:00.095Z,145
2018-12-03T11:34:08.766Z,160
2018-12-03T11:35:17.494Z,145
2018-12-03T11:36:26.165Z,165
2018-12-03T11:37:34.851Z,145
2018-12-03T11:38:44.131Z,140
2018-12-03T11:39:52.812Z,125
2018-12-03T11:41:01.509Z,120
2018-12-03T11:42:10.199Z,115
2018-12-03T11:43:18.876Z,110
2018-12-03T11:44:27.592Z,100
2018-12-03T11:45:36.524Z,100
2018-12-03T11:46:45.198Z,140
2018-12-03T11:47:53.885Z,150
2018-12-03T11:49:02.818Z,135
2018-12-03T11:50:11.502Z,130
2018-12-03T11:51:20.170Z,130
2018-12-03T11:52:28.860Z,120
2018-12-03T11:53:37.538Z,125
2018-12-03T11:54:46.220Z,135
2018-12-03T11:55:54.885Z,125
2018-12-03T11:57:03.573Z,115
2018-12-03T11:58:12.252Z,120
2018-12-03T11:59:21.565Z,115
2018-12-03T12:00:30.243Z,125
2018-12-03T12:01:38.922Z,130
2018-12-03T12:02:47.735Z,125
2018-12-03T12:03:56.667Z,135
2018-12-03T12:05:05.348Z,135
2018-12-03T12:06:14.292Z,125
2018-12-03T12:07:23.101Z,130
2018-12-03T12:08:31.816Z,120
2018-12-03T12:09:40.718Z,115
2018-12-03T12:10:49.413Z,110
2018-12-03T12:11:58.108Z,120
2018-12-03T12:13:06.802Z,120
2018-12-03T12:14:16.423Z,110
2018-12-03T12:15:25.916Z,90
2018-12-03T12:16:35.582Z,90
2018-12-03T12:17:44.787Z,100
2018-12-03T12:18:53.547Z,135
2018-12-03T12:20:03.043Z,140
2018-12-03T12:21:11.789Z,120
2018-12-03T12:22:20.471Z,100
2018-12-03T12:23:29.149Z,100
2018-12-03T12:24:38.663Z,105
2018-12-03T12:25:47.369Z,115
2018-12-03T12:26:56.060Z,120
2018-12-03T12:28:04.729Z,125
2018-12-03T12:29:13.416Z,125
2018-12-03T12:30:22.103Z,120
2018-12-03T12:31:31.032Z,115
2018-12-03T12:32:39.703Z,105
2018-12-03T12:33:48.404Z,110
2018-12-03T12:34:57.076Z,140
2018-12-03T12:36:05.763Z,170
2018-12-03T12:37:14.436Z,165
2018-12-03T12:38:23.124Z,160
2018-12-03T12:39:31.800Z,120
2018-12-03T12:40:40.480Z,130
2018-12-03T12:41:49.412Z,125
2018-12-03T12:42:58.084Z,105
2018-12-03T12:44:06.762Z,100
2018-12-03T12:45:15.439Z,95
2018-12-03T12:46:24.124Z,95
2018-12-03T12:47:32.795Z,90
2018-12-03T12:48:41.477Z,90
2018-12-03T12:49:50.672Z,90
2018-12-03T12:50:59.369Z,90
2018-12-03T12:52:08.041Z,85
2018-12-03T12:53:16.719Z,85
2018-12-03T12:54:25.403Z,85
2018-12-03T12:55:34.088Z,95
2018-12-03T12:56:42.760Z,95
2018-12-03T12:57:51.683Z,90
2018-12-03T12:59:00.363Z,85
2018-12-03T13:00:09.038Z,95
2018-12-03T13:01:17.724Z,105
2018-12-03T13:02:26.408Z,95
2018-12-03T13:03:35.333Z,100
2018-12-03T13:04:44.010Z,105
2018-12-03T13:05:52.690Z,100
2018-12-03T13:07:01.368Z,100
2018-12-03T13:08:10.042Z,95
2018-12-03T13:09:18.737Z,105
2018-12-03T13:10:27.424Z,90
2018-12-03T13:11:36.354Z,85
2018-12-03T13:12:45.037Z,90
2018-12-03T13:13:53.715Z,90
2018-12-03T13:15:02.394Z,85
2018-12-03T13:16:11.377Z,90
2018-12-03T13:17:20.062Z,90
2018-12-03T13:18:28.741Z,90
2018-12-03T13:19:37.409Z,85
2018-12-03T13:20:46.086Z,85
2018-12-03T13:21:54.767Z,90
2018-12-03T13:23:03.709Z,90
2018-12-03T13:24:12.430Z,90
2018-12-03T13:25:21.113Z,85
2018-12-03T13:26:29.790Z,85
2018-12-03T13:27:38.484Z,85
2018-12-03T13:28:47.154Z,85
2018-12-03T13:29:55.834Z,90
2018-12-03T13:31:04.514Z,100
2018-12-03T13:32:13.194Z,105
2018-12-03T13:33:22.333Z,100
2018-12-03T13:34:36.624Z,95
2018-12-03T13:35:45.349Z,90
2018-12-03T13:36:54.033Z,85
2018-12-03T13:38:02.723Z,80
2018-12-03T13:39:11.708Z,75
2018-12-03T13:40:20.398Z,65
2018-12-03T13:41:29.324Z,60
2018-12-03T13:42:38.026Z,55
2018-12-03T13:43:46.701Z,50
2018-12-03T13:44:55.382Z,55
2018-12-03T13:46:04.053Z,55
2018-12-03T13:47:13.000Z,55
2018-12-03T13:48:21.683Z,60
2018-12-03T13:49:30.364Z,70
2018-12-03T13:50:39.300Z,75
2018-12-03T13:51:47.971Z,75
2018-12-03T13:52:56.651Z,75
2018-12-03T13:54:05.584Z,75
2018-12-03T13:55:14.262Z,75
2018-12-03T13:56:22.930Z,70
2018-12-03T13:57:31.608Z,65
2018-12-03T13:58:40.284Z,60
2018-12-03T13:59:49.223Z,60
2018-12-03T14:00:57.896Z,65
2018-12-03T14:02:06.789Z,65
2018-12-03T14:03:19.625Z,55
2018-12-03T14:04:32.217Z,50
2018-12-03T14:05:44.463Z,50
2018-12-03T14:06:53.407Z,50
2018-12-03T14:08:02.084Z,45
2018-12-03T14:09:10.766Z,40
2018-12-03T14:10:19.446Z,30
2018-12-03T14:11:28.375Z,25
2018-12-03T14:12:37.053Z,25
2018-12-03T14:13:45.741Z,20
2018-12-03T14:14:54.421Z,20
2018-12-03T14:16:03.350Z,20
2018-12-03T14:17:12.054Z,20
2018-12-03T14:18:20.727Z,15
2018-12-03T14:19:29.409Z,15
2018-12-03T14:20:38.085Z,10
2018-12-03T14:21:46.849Z,10
2018-12-03T14:22:55.534Z,10
2018-12-03T14:24:04.224Z,10
2018-12-03T14:25:12.901Z,10
2018-12-03T14:26:21.582Z,10
2018-12-03T14:27:31.957Z,10
2018-12-03T14:28:40.638Z,5
2018-12-03T14:29:49.323Z,10
2018-12-03T14:30:57.998Z,10
2018-12-03T14:32:06.675Z,10
2018-12-03T14:33:15.345Z,10
2018-12-03T14:34:24.080Z,15
2018-12-03T14:35:32.747Z,15
2018-12-03T14:36:41.444Z,15
2018-12-03T14:37:50.114Z,15
2018-12-03T14:38:58.802Z,15
2018-12-03T14:40:07.474Z,15
2018-12-03T14:41:16.165Z,15
2018-12-03T14:42:24.847Z,10
2018-12-03T14:43:33.520Z,10
2018-12-03T14:44:42.200Z,10
2018-12-03T14:45:50.880Z,10
2018-12-03T14:46:59.565Z,5
2018-12-03T14:48:08.233Z,5
2018-12-03T14:49:16.910Z,5
2018-12-03T14:50:25.583Z,5
2018-12-03T14:51:34.278Z,5
2018-12-03T14:52:43.207Z,5
2018-12-03T14:53:51.887Z,5
2018-12-03T14:55:00.550Z,5
2018-12-03T14:56:09.493Z,5
2018-12-03T14:57:18.161Z,5
2018-12-03T14:58:26.847Z,5
2018-12-03T14:59:35.517Z,10
2018-12-03T15:00:44.207Z,10
2018-12-03T15:01:52.887Z,10
2018-12-03T15:03:01.569Z,5
2018-12-03T15:04:10.246Z,5
2018-12-03T15:05:18.926Z,5
2018-12-03T15:06:27.608Z,5
2018-12-03T15:07:36.283Z,5
2018-12-03T15:08:44.967Z,5
2018-12-03T15:09:53.633Z,5
2018-12-03T15:11:02.657Z,5
2018-12-03T15:12:11.325Z,5
2018-12-03T15:13:20.321Z,5
2018-12-03T15:14:28.995Z,5
2018-12-03T15:15:37.930Z,5
2018-12-03T15:16:46.598Z,5
2018-12-03T15:17:55.292Z,5
2018-12-03T15:19:04.636Z,5
2018-12-03T15:20:13.396Z,5
2018-12-03T15:21:22.065Z,0
2018-12-03T15:22:30.746Z,0
2018-12-03T15:23:39.933Z,0
2018-12-03T15:24:49.739Z,0
2018-12-03T15:25:58.432Z,0
2018-12-03T15:27:07.110Z,0
2018-12-03T15:28:19.836Z,0
2018-12-03T15:29:28.516Z,0
2018-12-03T15:30:37.464Z,0
2018-12-03T15:31:46.405Z,0
2018-12-03T15:32:55.070Z,0
2018-12-03T15:34:03.750Z,0
2018-12-03T15:35:12.445Z,0
2018-12-03T15:36:21.212Z,0
2018-12-03T15:37:29.883Z,0
2018-12-03T15:38:38.557Z,0
2018-12-03T15:39:47.229Z,0
2018-12-03T15:40:55.918Z,0
2018-12-03T15:42:05.102Z,0
2018-12-03T15:43:13.772Z,0
2018-12-03T15:44:22.449Z,0
2018-12-03T15:45:31.378Z,0
2018-12-03T15:46:40.064Z,0
2018-12-03T15:47:48.732Z,0
2018-12-03T15:48:57.661Z,0
2018-12-03T15:50:06.332Z,0
2018-12-03T15:51:15.025Z,0
2018-12-03T15:52:23.698Z,0
2018-12-03T15:53:32.377Z,0
2018-12-03T15:54:41.303Z,0
2018-12-03T15:55:49.988Z,0
2018-12-03T15:56:58.661Z,0
2018-12-03T15:58:07.329Z,0
2018-12-03T15:59:16.508Z,0
2018-12-03T16:00:25.186Z,0
2018-12-03T16:01:33.875Z,0
2018-12-03T16:02:42.554Z,0
2018-12-03T16:03:51.231Z,0
2018-12-03T16:04:59.894Z,0
2018-12-03T16:06:08.577Z,0
2018-12-03T16:07:17.255Z,0
2018-12-03T16:08:25.945Z,0
2018-12-03T16:09:34.869Z,0
2018-12-03T16:10:43.551Z,0
2018-12-03T16:11:52.227Z,0
2018-12-03T16:13:00.917Z,0
2018-12-03T16:14:09.584Z,0
2018-12-03T16:15:18.513Z,0
2018-12-03T16:16:27.184Z,0
2018-12-03T16:17:35.873Z,0
2018-12-03T16:18:44.549Z,0
2018-12-03T16:19:53.228Z,0
2018-12-03T16:21:01.913Z,0
2018-12-03T16:22:10.844Z,0
2018-12-03T16:23:19.791Z,0
2018-12-03T16:24:28.465Z,0
2018-12-03T16:25:37.396Z,0
2018-12-03T16:26:46.068Z,0
2018-12-03T16:27:54.806Z,0
2018-12-03T16:29:03.479Z,0
2018-12-03T16:30:12.168Z,0
2018-12-03T16:31:20.840Z,0
2018-12-03T16:32:29.782Z,0
2018-12-03T16:33:38.456Z,0